Aérodrome :
LOGIN :

S'inscrire | Disclaimer

   EN    FR    IT 

 










Légende :    VFR   VFR Marginal   IFR   IFR Intensif   IFR Très Intensif
Visi : 
Plafond : 
>= 8 km
>= 3000ft
5 à 8 km
1000 à 3000 ft
1500m à 5 km
500 à 1000 ft
800 à 1500m
200 à 500 ft
< 800m
< 200 ft
Symboles :   Orages  Brouillard  Fortes neiges  Fortes précipitations  Vent > 20 kt
SIGMETs :   Divers  Orages  Givrage  Turbulence  Onde Orograph.  Cendres Volcan.






- Altitude de l'aérodrome : 433 ft


LFOC - Chateaudun

DERNIER METAR :
  • 100400Z AUTO 19003KT 9999 ////// M02/M02 Q1028

METARs EXPIRÉS :
  • 100330Z AUTO 26002KT 9999 ////// M02/M02 Q1028
  • 100300Z AUTO 25003KT 9999 ////// M01/M01 Q1028
  • 100230Z AUTO 25005KT 9999 ////// M01/M02 Q1028
  • 100200Z AUTO 24004KT 9999 ////// M00/M02 Q1028
  • 100130Z AUTO 26006KT 9999 ////// 01/00 Q1028

TAF TAF LFOC
Valide du 09 à 15h jusqu'au 10 à 15h UTC


091400Z 0915/1015 30015KT 9999 BKN030
TEMPO 0915/0918 30020G30KT
BECMG 0920/0922 27005KT
PROB30
TEMPO 1003/1006 3000 BR
BECMG 1014/1015 19015KT



MET'MAP, la Météo Aéronautique d'un coup d'oeil ! - Copyright ORBIFLY Décembre 2007 - Disclaimer

ORBIFLY MET'MAP TEAM :

Programmation & Développement : Alexandra Zaïnal
Sur une idée originale de : Baudouin d'Aumeries
Assistance à la programmation : Marc-Olivier Méhu
Soutien technique & logistique : Manuel Goepfert

Contact : metmap@orbifly.com




SOURCES & CREDITS :

   NOAA